Time;durP1;ratioP1;P1;durP2;ratioP2;P2;SDS_P1;SDS_P2;PMS_P1;PMS_P2;Temp;Humidity;BMP_temperature;BMP_pressure;BME280_temperature;BME280_humidity;BME280_pressure;Samples;Min_cycle;Max_cycle;Signal;HPM_P1;HPM_P2
2023/12/05 00:02:03;;;;;;;8.90;6.83;;;5.20;99.90;;;;;;5077931;28;20264;-70
2023/12/05 00:04:29;;;;;;;9.40;6.57;;;5.20;99.90;;;;;;5074020;28;20233;-69
2023/12/05 00:06:55;;;;;;;7.83;6.77;;;5.20;99.90;;;;;;5073557;28;20190;-69
2023/12/05 00:09:20;;;;;;;9.10;6.87;;;5.20;99.90;;;;;;5078270;28;20179;-68
2023/12/05 00:11:46;;;;;;;8.83;6.70;;;5.20;99.90;;;;;;5080302;28;20210;-69
2023/12/05 00:14:11;;;;;;;7.57;6.20;;;5.30;99.90;;;;;;5077954;28;20195;-69
2023/12/05 00:16:39;;;;;;;8.57;6.83;;;5.30;99.90;;;;;;5063615;28;20269;-70
2023/12/05 00:19:05;;;;;;;8.37;6.37;;;5.30;99.90;;;;;;5067098;28;20268;-68
2023/12/05 00:21:33;;;;;;;7.93;6.87;;;5.30;99.90;;;;;;5060079;28;20255;-70
2023/12/05 00:23:58;;;;;;;7.77;6.40;;;5.30;99.90;;;;;;5076375;28;20290;-69
2023/12/05 00:26:24;;;;;;;8.33;6.87;;;5.30;99.90;;;;;;5076619;28;20259;-71
2023/12/05 00:28:50;;;;;;;8.90;6.87;;;5.40;99.90;;;;;;5070587;28;20180;-69
2023/12/05 00:31:15;;;;;;;8.87;7.97;;;5.60;99.90;;;;;;5061485;28;20261;-70
2023/12/05 00:33:44;;;;;;;6.87;6.07;;;5.40;99.90;;;;;;5074292;28;20240;-70
2023/12/05 00:36:10;;;;;;;7.70;6.90;;;5.30;99.90;;;;;;5068725;28;20210;-68
2023/12/05 00:38:36;;;;;;;8.13;7.10;;;5.30;99.90;;;;;;5075532;28;20183;-69
2023/12/05 00:41:02;;;;;;;8.10;6.43;;;5.30;99.90;;;;;;5079956;28;20172;-69
2023/12/05 00:43:27;;;;;;;6.53;5.47;;;5.40;99.90;;;;;;5078094;28;20214;-69
2023/12/05 00:45:55;;;;;;;7.63;6.83;;;5.40;99.90;;;;;;5081425;28;20211;-69
2023/12/05 00:48:23;;;;;;;8.10;6.80;;;5.30;99.90;;;;;;5080015;28;20204;-69
2023/12/05 00:50:51;;;;;;;9.17;7.67;;;5.40;99.90;;;;;;5073065;28;20308;-71
2023/12/05 00:53:16;;;;;;;7.23;6.33;;;5.30;99.90;;;;;;5080558;28;20306;-69
2023/12/05 00:55:42;;;;;;;7.97;6.43;;;5.30;99.90;;;;;;5085215;28;20294;-69
2023/12/05 00:58:08;;;;;;;7.97;6.93;;;5.30;99.90;;;;;;5077950;28;20183;-70
2023/12/05 01:00:36;;;;;;;7.33;5.87;;;5.30;99.90;;;;;;5081202;28;20180;-68
2023/12/05 01:03:01;;;;;;;8.23;6.40;;;5.30;99.90;;;;;;5079317;28;20255;-70
2023/12/05 01:05:31;;;;;;;7.80;6.40;;;5.30;99.90;;;;;;5081005;28;20179;-69
2023/12/05 01:07:57;;;;;;;9.23;6.90;;;5.30;99.90;;;;;;5075689;28;20204;-68
2023/12/05 01:10:23;;;;;;;9.97;8.03;;;5.30;99.90;;;;;;5079149;28;20190;-70
2023/12/05 01:12:48;;;;;;;8.53;7.00;;;5.20;99.90;;;;;;5081108;28;20212;-69
2023/12/05 01:15:19;;;;;;;8.47;7.20;;;5.20;99.90;;;;;;5079182;28;20199;-69
2023/12/05 01:17:47;;;;;;;7.90;6.77;;;5.20;99.90;;;;;;5080087;28;20168;-70
2023/12/05 01:20:12;;;;;;;7.33;6.40;;;5.20;99.90;;;;;;5080114;28;20179;-70
2023/12/05 01:22:40;;;;;;;8.33;7.00;;;5.20;99.90;;;;;;5086817;28;20261;-70
2023/12/05 01:25:08;;;;;;;9.33;7.50;;;5.20;99.90;;;;;;5079635;28;20279;-69
2023/12/05 01:27:36;;;;;;;7.63;6.50;;;5.20;99.90;;;;;;5079048;28;20180;-69
2023/12/05 01:30:05;;;;;;;7.73;6.80;;;5.20;99.90;;;;;;5091152;28;20176;-69
2023/12/05 01:32:30;;;;;;;7.47;6.20;;;5.20;99.90;;;;;;5061734;28;20200;-69
2023/12/05 01:34:58;;;;;;;7.40;6.43;;;5.20;99.90;;;;;;5074928;28;20196;-69
2023/12/05 01:37:24;;;;;;;8.00;6.43;;;5.20;99.90;;;;;;5071919;28;20192;-69
2023/12/05 01:39:49;;;;;;;9.07;7.33;;;5.20;99.90;;;;;;5080491;28;20172;-69
2023/12/05 01:42:17;;;;;;;8.37;7.20;;;5.20;99.90;;;;;;5079232;28;20243;-69
2023/12/05 01:44:43;;;;;;;7.97;6.90;;;5.20;99.90;;;;;;5080320;28;20186;-69
2023/12/05 01:47:13;;;;;;;9.63;7.77;;;5.20;99.90;;;;;;5078494;28;20274;-69
2023/12/05 01:49:43;;;;;;;8.30;7.17;;;5.20;99.90;;;;;;5077614;28;20292;-69
2023/12/05 01:52:12;;;;;;;8.80;7.20;;;5.20;99.90;;;;;;5080102;28;20203;-69
2023/12/05 01:54:38;;;;;;;9.17;7.50;;;5.20;99.90;;;;;;5079162;28;20237;-69
2023/12/05 01:57:08;;;;;;;7.80;6.90;;;5.20;99.90;;;;;;5087167;28;20172;-69
2023/12/05 01:59:39;;;;;;;8.53;6.50;;;5.20;99.90;;;;;;5079406;28;20180;-69
2023/12/05 02:02:07;;;;;;;8.07;6.57;;;5.20;99.90;;;;;;5079061;28;20235;-68
2023/12/05 02:04:33;;;;;;;6.97;6.27;;;5.20;99.90;;;;;;5077086;28;20198;-69
2023/12/05 02:07:00;;;;;;;7.40;6.53;;;5.20;99.90;;;;;;5077610;28;20266;-69
2023/12/05 02:09:28;;;;;;;7.70;6.83;;;5.30;99.90;;;;;;5079544;28;20206;-69
2023/12/05 02:11:56;;;;;;;6.63;5.80;;;5.30;99.90;;;;;;5079222;28;20208;-69
2023/12/05 02:14:21;;;;;;;7.50;6.60;;;5.20;99.90;;;;;;5089368;28;20218;-69
2023/12/05 02:16:58;;;;;;;7.73;6.57;;;5.30;99.90;;;;;;5073271;28;20287;-69
2023/12/05 02:19:46;;;;;;;6.67;5.90;;;5.30;99.90;;;;;;5070575;28;20175;-69
2023/12/05 02:22:23;;;;;;;6.57;5.83;;;5.30;99.90;;;;;;5071078;28;20180;-68
2023/12/05 02:25:16;;;;;;;6.13;5.17;;;5.30;99.90;;;;;;5090311;28;20171;-68
2023/12/05 02:27:47;;;;;;;5.93;4.93;;;5.30;99.90;;;;;;5096058;28;20245;-69
2023/12/05 02:30:15;;;;;;;5.63;5.00;;;5.30;99.90;;;;;;5078945;28;20176;-69
2023/12/05 02:32:43;;;;;;;6.07;5.40;;;5.30;99.90;;;;;;5077942;28;20198;-69
2023/12/05 02:35:10;;;;;;;5.20;4.70;;;5.30;99.90;;;;;;5077272;28;20180;-69
2023/12/05 02:37:51;;;;;;;5.37;4.70;;;5.40;99.90;;;;;;5078302;28;20199;-69
2023/12/05 02:40:32;;;;;;;5.93;5.03;;;5.40;99.90;;;;;;5077296;28;20226;-69
2023/12/05 02:43:10;;;;;;;5.60;5.00;;;5.40;99.90;;;;;;5074849;28;20180;-71
2023/12/05 02:45:39;;;;;;;5.77;5.17;;;5.50;99.90;;;;;;5077411;28;20180;-69
2023/12/05 02:48:07;;;;;;;6.73;5.30;;;5.50;99.90;;;;;;5071617;28;20207;-69
2023/12/05 02:50:35;;;;;;;5.77;5.17;;;5.50;99.90;;;;;;5076897;28;20214;-69
2023/12/05 02:53:03;;;;;;;5.60;4.97;;;5.50;99.90;;;;;;5060846;28;20180;-68
2023/12/05 02:55:29;;;;;;;5.40;4.80;;;5.50;99.90;;;;;;5078356;28;20172;-68
2023/12/05 02:57:56;;;;;;;5.10;4.60;;;5.50;99.90;;;;;;5079174;28;20236;-69
2023/12/05 03:00:24;;;;;;;5.33;4.30;;;5.60;99.90;;;;;;5074507;28;20191;-68
2023/12/05 03:02:52;;;;;;;4.83;4.20;;;5.60;99.90;;;;;;5078176;28;20275;-68
2023/12/05 03:05:18;;;;;;;5.10;4.20;;;5.60;99.90;;;;;;5078732;28;20172;-70
2023/12/05 03:07:43;;;;;;;5.03;4.27;;;5.60;99.90;;;;;;5073630;28;20251;-69
2023/12/05 03:10:09;;;;;;;4.93;4.40;;;5.60;99.90;;;;;;5075840;28;20179;-69
2023/12/05 03:12:37;;;;;;;5.57;4.77;;;5.60;99.90;;;;;;5076863;28;20223;-70
2023/12/05 03:15:06;;;;;;;4.67;4.10;;;5.70;99.90;;;;;;5077425;28;20254;-69
2023/12/05 03:17:31;;;;;;;4.47;4.03;;;5.70;99.90;;;;;;5076064;28;20180;-69
2023/12/05 03:19:59;;;;;;;4.83;4.33;;;5.70;99.90;;;;;;5074486;28;20255;-69
2023/12/05 03:22:29;;;;;;;4.27;3.87;;;5.70;99.90;;;;;;5060796;28;20184;-69
2023/12/05 03:24:57;;;;;;;4.30;3.90;;;5.80;99.90;;;;;;5060521;28;20180;-68
2023/12/05 03:27:23;;;;;;;4.27;3.77;;;5.80;99.90;;;;;;5067614;28;20184;-69
2023/12/05 03:29:51;;;;;;;4.30;3.90;;;5.90;99.90;;;;;;5077612;28;20183;-69
2023/12/05 03:32:17;;;;;;;3.80;3.50;;;5.90;99.90;;;;;;5070991;28;20298;-69
2023/12/05 03:34:44;;;;;;;4.73;4.13;;;5.90;99.90;;;;;;5073903;28;20378;-69
2023/12/05 03:37:10;;;;;;;4.00;3.60;;;5.90;99.90;;;;;;5083141;28;20252;-69
2023/12/05 03:39:35;;;;;;;5.00;4.20;;;5.90;99.90;;;;;;5080094;28;20207;-69
2023/12/05 03:42:01;;;;;;;4.13;3.50;;;6.00;99.90;;;;;;5077802;28;20210;-69
2023/12/05 03:44:29;;;;;;;4.60;4.00;;;6.00;99.90;;;;;;5076038;28;20419;-68
2023/12/05 03:46:57;;;;;;;4.20;3.77;;;6.00;99.90;;;;;;5069054;28;20255;-69
2023/12/05 03:49:25;;;;;;;4.23;3.83;;;6.00;99.90;;;;;;5077157;28;20176;-69
2023/12/05 03:51:51;;;;;;;4.20;3.80;;;6.10;99.90;;;;;;5080658;28;20289;-69
2023/12/05 03:54:16;;;;;;;4.70;4.17;;;6.10;99.90;;;;;;5075556;28;20191;-69
2023/12/05 03:56:44;;;;;;;4.50;4.10;;;6.10;99.90;;;;;;5077783;28;20199;-69
2023/12/05 03:59:13;;;;;;;4.80;4.30;;;6.10;99.90;;;;;;5075901;28;20279;-69
2023/12/05 04:01:38;;;;;;;4.27;3.87;;;6.10;99.90;;;;;;5070314;28;20180;-69
2023/12/05 04:04:06;;;;;;;4.60;3.63;;;6.10;99.90;;;;;;5076686;28;20196;-69
2023/12/05 04:06:34;;;;;;;4.30;3.63;;;6.10;99.90;;;;;;5075486;28;20190;-69
2023/12/05 04:09:04;;;;;;;4.00;3.60;;;6.20;99.90;;;;;;5061036;28;20232;-69
2023/12/05 04:11:33;;;;;;;4.50;3.70;;;6.10;99.90;;;;;;5077934;28;20230;-69
2023/12/05 04:13:59;;;;;;;3.73;3.43;;;6.20;99.90;;;;;;5072816;28;20184;-69
2023/12/05 04:16:28;;;;;;;4.10;3.70;;;6.20;99.90;;;;;;5078030;28;20169;-69
2023/12/05 04:18:54;;;;;;;5.27;4.53;;;6.20;99.90;;;;;;5078212;28;20249;-69
2023/12/05 04:21:20;;;;;;;4.50;4.03;;;6.30;99.90;;;;;;5081838;28;20184;-69
2023/12/05 04:23:48;;;;;;;4.40;4.00;;;6.30;99.90;;;;;;5082219;28;20265;-69
2023/12/05 04:26:22;;;;;;;4.20;3.70;;;6.30;99.90;;;;;;5076787;28;20184;-69
2023/12/05 04:28:48;;;;;;;4.27;3.70;;;6.30;99.90;;;;;;5078663;28;20180;-69
2023/12/05 04:31:16;;;;;;;4.93;4.20;;;6.40;99.90;;;;;;5074583;28;20265;-69
2023/12/05 04:33:43;;;;;;;4.00;3.60;;;6.30;99.90;;;;;;5087479;28;20284;-69
2023/12/05 04:36:09;;;;;;;4.50;4.00;;;6.30;99.90;;;;;;5079149;28;20246;-69
2023/12/05 04:38:36;;;;;;;4.30;3.80;;;6.40;99.90;;;;;;5080790;28;20200;-69
2023/12/05 04:41:02;;;;;;;3.80;3.40;;;6.40;99.90;;;;;;5081061;28;20184;-69
2023/12/05 04:43:31;;;;;;;4.57;4.00;;;6.40;99.90;;;;;;5083708;28;20231;-69
2023/12/05 04:45:57;;;;;;;4.67;3.83;;;6.40;99.90;;;;;;5079183;28;20176;-69
2023/12/05 04:48:23;;;;;;;4.17;3.57;;;6.50;99.90;;;;;;5070257;28;20179;-68
2023/12/05 04:50:51;;;;;;;4.60;3.90;;;6.50;99.90;;;;;;5081056;28;20274;-69
2023/12/05 04:53:19;;;;;;;4.77;3.83;;;6.50;99.90;;;;;;5076783;28;20176;-69
2023/12/05 04:55:47;;;;;;;3.83;3.43;;;6.50;99.90;;;;;;5077733;28;20261;-68
2023/12/05 04:58:17;;;;;;;4.30;3.90;;;6.50;99.90;;;;;;5073631;28;20204;-69
2023/12/05 05:00:42;;;;;;;5.13;4.20;;;6.50;99.90;;;;;;5070112;28;20207;-69
2023/12/05 05:03:08;;;;;;;4.70;4.20;;;6.60;99.90;;;;;;5081203;28;20250;-69
2023/12/05 05:05:33;;;;;;;4.60;3.50;;;6.60;99.90;;;;;;5080117;28;20369;-69
2023/12/05 05:07:59;;;;;;;4.67;4.10;;;6.60;99.90;;;;;;5080176;28;20191;-69
2023/12/05 05:10:27;;;;;;;5.60;4.50;;;6.70;99.90;;;;;;5081183;28;20164;-69
2023/12/05 05:12:53;;;;;;;4.40;4.00;;;6.60;99.90;;;;;;5080641;28;20210;-69
2023/12/05 05:15:18;;;;;;;4.20;3.70;;;6.70;99.90;;;;;;5087263;28;20171;-69
2023/12/05 05:17:44;;;;;;;4.10;3.67;;;6.80;99.90;;;;;;5080775;28;20573;-68
2023/12/05 05:20:10;;;;;;;4.63;3.77;;;6.70;99.90;;;;;;5080009;28;20233;-69
2023/12/05 05:22:35;;;;;;;4.50;3.73;;;6.70;99.90;;;;;;5080623;28;20203;-69
2023/12/05 05:25:03;;;;;;;3.87;3.57;;;6.70;99.90;;;;;;5074768;28;20313;-68
2023/12/05 05:27:29;;;;;;;4.17;3.73;;;6.70;99.90;;;;;;5076297;28;20188;-68
2023/12/05 05:29:54;;;;;;;4.60;4.10;;;6.80;99.90;;;;;;5079599;28;20192;-68
2023/12/05 05:32:21;;;;;;;3.13;2.83;;;6.80;99.90;;;;;;5082111;28;20244;-68
2023/12/05 05:34:49;;;;;;;3.57;3.23;;;6.80;99.90;;;;;;5077360;28;20196;-68
2023/12/05 05:37:17;;;;;;;6.90;3.67;;;6.80;99.90;;;;;;5093389;28;20214;-69
2023/12/05 05:39:43;;;;;;;4.00;3.50;;;6.80;99.90;;;;;;5067314;28;20187;-68
2023/12/05 05:42:09;;;;;;;3.47;3.10;;;6.90;99.90;;;;;;5080165;28;20291;-68
2023/12/05 05:44:39;;;;;;;4.17;3.60;;;6.90;99.90;;;;;;5080241;28;20285;-69
2023/12/05 05:47:07;;;;;;;3.43;3.07;;;7.00;99.90;;;;;;5079702;28;20176;-69
2023/12/05 05:49:32;;;;;;;3.40;3.00;;;7.00;99.90;;;;;;5084415;28;20187;-69
2023/12/05 05:51:58;;;;;;;3.87;3.47;;;7.00;99.90;;;;;;5100517;28;20206;-69
2023/12/05 05:54:24;;;;;;;3.97;3.10;;;7.00;99.90;;;;;;5095674;28;20256;-69
2023/12/05 05:56:54;;;;;;;3.40;3.00;;;7.00;99.90;;;;;;5077960;28;20520;-69
2023/12/05 05:59:20;;;;;;;3.20;2.90;;;7.00;99.90;;;;;;5080028;28;20194;-69
2023/12/05 06:01:48;;;;;;;3.80;3.13;;;7.00;99.90;;;;;;5079752;28;20184;-69
2023/12/05 06:04:16;;;;;;;3.70;3.10;;;7.00;99.90;;;;;;5079699;28;20176;-69
2023/12/05 06:06:42;;;;;;;3.53;3.20;;;7.10;99.90;;;;;;5079507;28;20207;-69
2023/12/05 06:09:07;;;;;;;4.37;3.33;;;7.10;99.90;;;;;;5079779;28;20190;-69
2023/12/05 06:11:35;;;;;;;3.90;3.10;;;7.10;99.90;;;;;;5079369;28;20226;-69
2023/12/05 06:14:03;;;;;;;4.80;3.53;;;7.10;99.90;;;;;;5079615;28;20168;-69
2023/12/05 06:16:31;;;;;;;3.33;3.03;;;7.20;99.90;;;;;;5071720;28;20179;-69
2023/12/05 06:18:57;;;;;;;3.63;3.33;;;7.10;99.90;;;;;;5066574;28;20180;-69
2023/12/05 06:21:22;;;;;;;3.33;3.03;;;7.10;99.90;;;;;;5079646;28;20183;-69
2023/12/05 06:23:50;;;;;;;3.37;2.80;;;7.20;99.90;;;;;;5079291;28;20207;-69
2023/12/05 06:26:19;;;;;;;3.77;2.73;;;7.20;99.90;;;;;;5079242;28;20180;-69
2023/12/05 06:28:49;;;;;;;3.47;2.80;;;7.10;99.90;;;;;;5078983;28;20204;-69
2023/12/05 06:31:17;;;;;;;3.53;3.13;;;7.10;99.90;;;;;;5078970;28;20223;-69
2023/12/05 06:33:45;;;;;;;2.60;2.33;;;7.10;99.90;;;;;;5079057;28;20219;-68
2023/12/05 06:36:12;;;;;;;3.20;2.90;;;7.10;99.90;;;;;;5078721;28;20447;-68
2023/12/05 06:38:37;;;;;;;4.80;3.97;;;7.10;99.90;;;;;;5078960;28;20168;-68
2023/12/05 06:41:09;;;;;;;3.90;3.30;;;7.20;99.90;;;;;;5078745;28;20202;-68
2023/12/05 06:43:37;;;;;;;3.77;3.17;;;7.10;99.90;;;;;;5078851;28;20179;-68
2023/12/05 06:46:08;;;;;;;3.47;3.17;;;7.10;99.90;;;;;;5078839;28;20176;-69
2023/12/05 06:48:33;;;;;;;3.37;3.03;;;7.20;99.90;;;;;;5078394;28;20179;-68
2023/12/05 06:50:59;;;;;;;3.67;3.23;;;7.20;99.90;;;;;;5078430;28;20176;-68
2023/12/05 06:53:25;;;;;;;3.33;3.03;;;7.20;99.90;;;;;;5074632;28;20227;-68
2023/12/05 06:55:52;;;;;;;3.83;3.03;;;7.30;99.90;;;;;;5083749;28;20207;-68
2023/12/05 06:58:22;;;;;;;3.33;2.90;;;7.30;99.90;;;;;;5077981;28;20196;-68
2023/12/05 07:00:47;;;;;;;4.07;3.10;;;7.30;99.90;;;;;;5078317;28;20184;-68
2023/12/05 07:03:15;;;;;;;3.77;3.20;;;7.30;99.90;;;;;;5078422;28;20172;-68
2023/12/05 07:05:43;;;;;;;5.60;3.80;;;7.40;99.90;;;;;;5078456;28;20168;-68
2023/12/05 07:08:09;;;;;;;3.63;2.90;;;7.40;99.90;;;;;;5077817;28;20168;-68
2023/12/05 07:10:37;;;;;;;4.13;3.20;;;7.40;99.90;;;;;;5078414;28;20230;-68
2023/12/05 07:13:07;;;;;;;4.87;2.83;;;7.40;99.90;;;;;;5061476;28;20263;-68
2023/12/05 07:15:33;;;;;;;3.83;2.67;;;7.40;99.90;;;;;;5078021;28;20172;-68
2023/12/05 07:17:58;;;;;;;3.40;2.80;;;7.50;99.90;;;;;;5078022;28;20233;-68
2023/12/05 07:20:29;;;;;;;3.73;3.00;;;7.50;99.90;;;;;;5077870;28;20172;-68
2023/12/05 07:22:56;;;;;;;3.23;2.53;;;7.50;99.90;;;;;;5077890;28;20264;-69
2023/12/05 07:25:22;;;;;;;3.20;2.57;;;7.50;99.90;;;;;;5077854;28;20203;-68
2023/12/05 07:27:50;;;;;;;3.00;2.70;;;7.60;99.90;;;;;;5077637;28;20199;-68
2023/12/05 07:30:16;;;;;;;3.20;2.70;;;7.60;99.90;;;;;;5093173;28;20199;-69
2023/12/05 07:32:44;;;;;;;3.30;2.70;;;7.70;99.90;;;;;;5092107;28;20204;-69
2023/12/05 07:35:10;;;;;;;2.80;2.50;;;7.60;99.90;;;;;;5078026;28;20172;-68
2023/12/05 07:37:38;;;;;;;3.00;2.47;;;7.60;99.90;;;;;;5077775;28;20244;-68
2023/12/05 07:40:06;;;;;;;4.17;2.13;;;7.70;99.90;;;;;;5072149;28;20204;-68
2023/12/05 07:42:32;;;;;;;2.83;2.50;;;7.70;99.90;;;;;;5077936;28;20206;-69
2023/12/05 07:45:01;;;;;;;2.50;2.30;;;7.70;99.90;;;;;;5076288;28;20191;-69
2023/12/05 07:47:27;;;;;;;2.83;2.57;;;7.70;99.90;;;;;;5078010;28;20232;-69
2023/12/05 07:49:53;;;;;;;2.60;2.37;;;7.80;99.90;;;;;;5083332;28;20273;-68
2023/12/05 07:52:19;;;;;;;2.73;2.20;;;7.80;99.90;;;;;;5077522;28;20208;-68
2023/12/05 07:54:47;;;;;;;2.60;2.10;;;7.80;99.90;;;;;;5077936;28;20167;-68
2023/12/05 07:57:22;;;;;;;2.20;2.00;;;7.80;99.90;;;;;;5094384;28;20249;-69
2023/12/05 07:59:48;;;;;;;2.90;2.00;;;7.90;99.90;;;;;;5094296;28;20163;-68
2023/12/05 08:02:14;;;;;;;2.43;2.00;;;7.90;99.90;;;;;;5083808;28;20177;-68
2023/12/05 08:04:41;;;;;;;2.30;2.10;;;7.80;99.90;;;;;;5061262;28;20176;-68
2023/12/05 08:07:09;;;;;;;3.50;2.70;;;8.00;99.90;;;;;;5074988;28;20218;-68
2023/12/05 08:09:35;;;;;;;2.10;1.90;;;8.00;99.90;;;;;;5077381;28;20200;-68
2023/12/05 08:12:00;;;;;;;2.33;2.00;;;7.90;99.90;;;;;;5077377;28;20199;-69
2023/12/05 08:14:26;;;;;;;3.43;1.97;;;8.10;99.90;;;;;;5090236;28;20180;-68
2023/12/05 08:16:54;;;;;;;1.93;1.70;;;8.00;99.90;;;;;;5080842;28;20164;-68
2023/12/05 08:19:19;;;;;;;2.47;1.60;;;8.10;99.90;;;;;;5077493;28;20168;-68
2023/12/05 08:21:45;;;;;;;2.40;1.60;;;8.10;99.90;;;;;;5077245;28;20196;-69
2023/12/05 08:24:13;;;;;;;1.80;1.40;;;8.10;99.90;;;;;;5077302;28;20172;-68
2023/12/05 08:26:40;;;;;;;2.77;1.33;;;8.20;99.90;;;;;;5077234;28;20176;-69
2023/12/05 08:29:08;;;;;;;2.63;1.52;;;8.20;99.90;;;;;;5077610;28;20180;-68
2023/12/05 08:31:37;;;;;;;2.87;1.30;;;8.30;99.90;;;;;;5077432;28;20192;-68
2023/12/05 08:34:03;;;;;;;1.70;1.60;;;8.20;99.90;;;;;;5077573;28;20259;-68
2023/12/05 08:36:31;;;;;;;1.93;1.50;;;8.20;99.90;;;;;;5094803;28;20280;-68
2023/12/05 08:38:56;;;;;;;2.27;1.60;;;8.30;99.90;;;;;;5094421;28;20176;-68
2023/12/05 08:41:22;;;;;;;1.70;1.50;;;8.30;99.90;;;;;;5092814;28;20261;-68
2023/12/05 08:43:50;;;;;;;1.70;1.40;;;8.30;99.90;;;;;;5077594;28;20277;-68
2023/12/05 08:46:16;;;;;;;2.07;1.57;;;8.40;99.90;;;;;;5077348;28;20267;-68
2023/12/05 08:48:46;;;;;;;2.78;1.67;;;8.30;99.90;;;;;;5077263;28;20233;-68
2023/12/05 08:51:14;;;;;;;1.60;1.50;;;8.40;99.90;;;;;;5064266;28;20195;-68
2023/12/05 08:53:40;;;;;;;2.13;1.43;;;8.40;99.90;;;;;;5077328;28;20168;-68
2023/12/05 08:56:10;;;;;;;1.58;1.48;;;8.40;99.90;;;;;;5077847;28;20274;-68
2023/12/05 08:58:42;;;;;;;3.30;1.60;;;8.40;99.90;;;;;;5087493;28;20171;-69
2023/12/05 09:01:12;;;;;;;2.70;1.73;;;8.40;99.90;;;;;;5080700;28;20180;-67
2023/12/05 09:03:40;;;;;;;2.13;1.40;;;8.40;99.90;;;;;;5082807;28;20288;-68
2023/12/05 09:06:08;;;;;;;2.00;1.50;;;8.40;99.90;;;;;;5077407;28;20169;-68
2023/12/05 09:08:36;;;;;;;2.00;1.50;;;8.40;99.90;;;;;;5060781;28;20208;-68
2023/12/05 09:11:07;;;;;;;2.10;1.37;;;8.40;99.90;;;;;;5060679;28;20164;-68
2023/12/05 09:13:33;;;;;;;1.90;1.40;;;8.40;99.90;;;;;;5072950;28;20179;-68
2023/12/05 09:15:59;;;;;;;1.40;1.20;;;8.40;99.90;;;;;;5085994;28;20284;-68
2023/12/05 09:18:25;;;;;;;2.60;1.30;;;8.40;99.90;;;;;;5080612;28;20168;-68
2023/12/05 09:20:52;;;;;;;1.60;1.40;;;8.40;99.90;;;;;;5080234;28;20180;-68
2023/12/05 09:23:18;;;;;;;1.37;1.20;;;8.40;99.90;;;;;;5080105;28;20219;-67
2023/12/05 09:25:44;;;;;;;2.07;1.20;;;8.50;99.90;;;;;;5080594;28;20195;-68
2023/12/05 09:28:10;;;;;;;2.10;1.33;;;8.50;99.90;;;;;;5080681;28;20176;-69
2023/12/05 09:30:40;;;;;;;1.30;1.20;;;8.50;99.90;;;;;;5095793;28;20207;-68
2023/12/05 09:33:06;;;;;;;1.63;1.20;;;8.60;99.90;;;;;;5080199;28;20200;-69
2023/12/05 09:35:32;;;;;;;1.23;1.00;;;8.60;99.90;;;;;;5079766;28;20187;-68
2023/12/05 09:37:58;;;;;;;1.10;1.00;;;8.60;99.90;;;;;;5079804;28;20278;-68
2023/12/05 09:40:24;;;;;;;1.30;0.97;;;8.60;99.90;;;;;;5080043;28;20199;-68
2023/12/05 09:42:54;;;;;;;1.23;1.13;;;8.60;99.90;;;;;;5079932;28;20294;-69
2023/12/05 09:45:21;;;;;;;2.78;1.10;;;8.70;99.90;;;;;;5080296;28;20195;-68
2023/12/05 09:47:47;;;;;;;2.03;1.00;;;8.70;99.90;;;;;;5080043;28;20240;-68
2023/12/05 09:50:16;;;;;;;1.55;1.08;;;8.70;99.90;;;;;;5079734;28;20195;-68
2023/12/05 09:52:43;;;;;;;2.17;1.20;;;8.70;99.90;;;;;;5079476;28;20203;-67
2023/12/05 09:55:15;;;;;;;2.15;1.10;;;8.70;99.90;;;;;;5079656;28;20266;-68
2023/12/05 09:57:41;;;;;;;1.40;1.00;;;8.80;99.90;;;;;;5077004;28;20196;-68
2023/12/05 10:00:08;;;;;;;1.60;1.05;;;8.80;99.90;;;;;;5079766;28;20180;-67
2023/12/05 10:02:38;;;;;;;1.00;0.85;;;8.80;99.90;;;;;;5079407;28;20168;-69
2023/12/05 10:05:13;;;;;;;2.13;1.00;;;8.80;99.90;;;;;;5081633;28;20171;-68
2023/12/05 10:07:40;;;;;;;2.50;0.77;;;8.90;99.90;;;;;;5059413;28;20454;-66
2023/12/05 10:10:10;;;;;;;1.95;1.00;;;8.90;99.90;;;;;;5073247;28;20496;-68
2023/12/05 10:12:36;;;;;;;1.30;1.05;;;8.90;99.90;;;;;;5079484;28;20278;-69
2023/12/05 10:15:03;;;;;;;1.38;1.00;;;9.00;99.90;;;;;;5059690;28;20180;-68
2023/12/05 10:17:33;;;;;;;2.50;0.90;;;9.00;99.90;;;;;;5059420;28;20199;-68
2023/12/05 10:19:59;;;;;;;2.42;1.63;;;9.00;99.90;;;;;;5074954;28;20172;-68
2023/12/05 10:22:32;;;;;;;1.38;1.05;;;9.00;99.90;;;;;;5079343;28;20179;-68
2023/12/05 10:25:00;;;;;;;1.20;1.00;;;9.10;99.90;;;;;;5079102;28;20195;-68
2023/12/05 10:27:26;;;;;;;1.17;1.08;;;9.20;99.90;;;;;;5074744;28;20200;-69
2023/12/05 10:29:53;;;;;;;1.20;1.02;;;9.10;99.90;;;;;;5059151;28;20173;-69
2023/12/05 10:32:25;;;;;;;1.60;1.23;;;9.20;99.90;;;;;;5058930;28;20210;-68
2023/12/05 10:34:56;;;;;;;1.92;1.10;;;9.20;99.90;;;;;;5066704;28;20176;-69
2023/12/05 10:37:30;;;;;;;1.50;0.90;;;9.30;99.90;;;;;;5095728;28;20192;-69
2023/12/05 10:40:01;;;;;;;1.42;0.90;;;9.30;99.90;;;;;;5082152;28;20229;-70
2023/12/05 10:42:32;;;;;;;1.60;1.02;;;9.20;99.90;;;;;;5078865;28;20268;-69
2023/12/05 10:44:57;;;;;;;2.15;0.98;;;9.30;99.90;;;;;;5060381;28;20291;-69
2023/12/05 10:47:27;;;;;;;0.95;0.82;;;9.30;99.90;;;;;;5059103;28;20210;-69
2023/12/05 10:49:55;;;;;;;1.17;0.80;;;9.30;99.90;;;;;;5065961;28;20180;-68
2023/12/05 10:52:24;;;;;;;1.15;0.80;;;9.40;99.90;;;;;;5068500;28;20212;-69
2023/12/05 10:54:57;;;;;;;0.93;0.80;;;9.30;99.90;;;;;;5072338;28;20271;-68
2023/12/05 10:57:36;;;;;;;1.10;0.70;;;9.40;99.90;;;;;;5078539;28;20434;-68
2023/12/05 11:00:08;;;;;;;0.95;0.73;;;9.40;99.90;;;;;;5076541;28;20224;-69
2023/12/05 11:02:37;;;;;;;1.00;0.90;;;9.40;99.90;;;;;;5063272;28;20192;-69
2023/12/05 11:05:05;;;;;;;0.80;0.68;;;9.50;99.90;;;;;;5078444;28;20196;-69
2023/12/05 11:07:31;;;;;;;1.80;0.60;;;9.50;99.90;;;;;;5078324;28;20207;-68
2023/12/05 11:09:58;;;;;;;1.05;0.70;;;9.60;99.90;;;;;;5078408;28;20172;-69
2023/12/05 11:12:25;;;;;;;0.85;0.63;;;9.60;99.90;;;;;;5077996;28;20275;-69
2023/12/05 11:14:55;;;;;;;0.95;0.57;;;9.70;99.90;;;;;;5078270;28;20172;-69
2023/12/05 11:17:27;;;;;;;1.02;0.60;;;9.70;99.90;;;;;;5078090;28;20168;-70
2023/12/05 11:20:08;;;;;;;0.95;0.60;;;9.70;99.90;;;;;;5081634;28;20222;-68
2023/12/05 11:22:37;;;;;;;1.13;0.60;;;9.70;99.90;;;;;;5093708;28;20326;-69
2023/12/05 11:25:17;;;;;;;0.90;0.40;;;9.80;99.90;;;;;;5094680;28;20172;-69
2023/12/05 11:27:59;;;;;;;0.98;0.47;;;9.80;99.90;;;;;;5088151;28;20191;-68
2023/12/05 11:30:43;;;;;;;0.50;0.50;;;9.70;99.90;;;;;;5078062;28;20199;-68
2023/12/05 11:33:17;;;;;;;0.65;0.40;;;9.70;99.90;;;;;;5077781;28;20215;-69
2023/12/05 11:36:07;;;;;;;0.55;0.45;;;9.70;99.90;;;;;;5077678;28;20168;-69
2023/12/05 11:38:35;;;;;;;1.30;0.38;;;9.60;99.90;;;;;;5077857;28;20259;-69
2023/12/05 11:41:22;;;;;;;0.68;0.30;;;9.60;99.90;;;;;;5077725;28;20172;-69
2023/12/05 11:44:13;;;;;;;0.30;0.30;;;9.60;99.90;;;;;;5077982;28;20262;-69
2023/12/05 11:46:51;;;;;;;0.40;0.38;;;9.60;99.90;;;;;;5062744;28;20269;-69
2023/12/05 11:50:00;;;;;;;0.50;0.40;;;9.60;99.90;;;;;;5077905;28;20174;-69
2023/12/05 11:52:37;;;;;;;0.43;0.40;;;9.60;99.90;;;;;;5049221;28;20233;-69
2023/12/05 11:55:10;;;;;;;0.40;0.40;;;9.50;99.90;;;;;;5065242;28;20179;-69
2023/12/05 11:57:36;;;;;;;0.40;0.38;;;9.50;99.90;;;;;;5078042;28;20192;-69
2023/12/05 12:00:03;;;;;;;0.40;0.40;;;9.50;99.90;;;;;;5064818;28;20201;-69
2023/12/05 12:02:32;;;;;;;0.50;0.40;;;9.50;99.90;;;;;;5077092;28;20186;-69
2023/12/05 12:05:06;;;;;;;0.28;0.28;;;9.50;99.90;;;;;;5099214;28;20268;-69
2023/12/05 12:07:56;;;;;;;0.30;0.30;;;9.50;99.90;;;;;;5077576;28;20206;-69
2023/12/05 12:10:23;;;;;;;0.68;0.38;;;9.40;99.90;;;;;;5084668;28;20191;-69
2023/12/05 12:12:55;;;;;;;1.98;0.32;;;9.40;99.90;;;;;;5094350;28;20207;-68
2023/12/05 12:15:22;;;;;;;0.20;0.20;;;9.30;99.90;;;;;;5083194;28;20184;-69
2023/12/05 12:17:48;;;;;;;0.82;0.40;;;9.30;99.90;;;;;;5077786;28;20199;-70
2023/12/05 12:20:15;;;;;;;0.30;0.30;;;9.30;99.90;;;;;;5077572;28;20196;-69
2023/12/05 12:22:44;;;;;;;0.73;0.40;;;9.30;99.90;;;;;;5077935;28;20180;-69
2023/12/05 12:25:14;;;;;;;1.02;0.40;;;9.30;99.90;;;;;;5060185;28;20179;-69
2023/12/05 12:27:45;;;;;;;0.70;0.40;;;9.20;99.90;;;;;;5077311;28;20195;-69
2023/12/05 12:30:16;;;;;;;0.63;0.40;;;9.20;99.90;;;;;;5077547;28;20186;-70
2023/12/05 12:32:57;;;;;;;1.23;0.40;;;9.20;99.90;;;;;;5095783;28;20198;-69
2023/12/05 12:35:29;;;;;;;0.75;0.60;;;9.20;99.90;;;;;;5077958;28;20254;-69
2023/12/05 12:37:57;;;;;;;1.33;0.80;;;9.20;99.90;;;;;;5081270;28;20183;-67
2023/12/05 12:40:26;;;;;;;1.20;0.90;;;9.20;99.90;;;;;;5098286;28;20175;-70
2023/12/05 12:42:55;;;;;;;0.68;0.60;;;9.20;99.90;;;;;;5083255;28;20191;-70
2023/12/05 12:45:24;;;;;;;0.98;0.60;;;9.10;99.90;;;;;;5065754;28;20186;-70
2023/12/05 12:47:52;;;;;;;0.43;0.40;;;9.10;99.90;;;;;;5091422;28;20204;-69
2023/12/05 12:50:20;;;;;;;0.82;0.32;;;9.00;99.90;;;;;;5098167;28;20180;-70
2023/12/05 12:52:46;;;;;;;0.70;0.45;;;9.10;99.90;;;;;;5081552;28;20207;-69
2023/12/05 12:55:17;;;;;;;0.50;0.50;;;9.10;99.90;;;;;;5081210;28;20200;-70
2023/12/05 12:57:47;;;;;;;0.60;0.50;;;9.00;99.90;;;;;;5080863;28;20195;-70
2023/12/05 13:00:17;;;;;;;0.50;0.40;;;8.90;99.90;;;;;;5080820;28;20168;-70
2023/12/05 13:02:45;;;;;;;0.70;0.50;;;9.00;99.90;;;;;;5080802;28;20196;-70
2023/12/05 13:05:11;;;;;;;0.43;0.32;;;9.00;99.90;;;;;;5080809;28;20243;-71